sensor_id;sensor_type;location;lat;lon;timestamp;P1;durP1;ratioP1;P2;durP2;ratioP2
15889;SDS011;8043;49.388;12.128;2023-05-07T00:03:44;4.03;;;2.60;;
15889;SDS011;8043;49.388;12.128;2023-05-07T00:08:47;5.20;;;3.10;;
15889;SDS011;8043;49.388;12.128;2023-05-07T00:13:49;6.03;;;3.30;;
15889;SDS011;8043;49.388;12.128;2023-05-07T00:18:52;5.17;;;3.27;;
15889;SDS011;8043;49.388;12.128;2023-05-07T00:23:54;7.03;;;4.10;;
15889;SDS011;8043;49.388;12.128;2023-05-07T00:28:56;6.93;;;3.77;;
15889;SDS011;8043;49.388;12.128;2023-05-07T00:33:58;6.57;;;4.07;;
15889;SDS011;8043;49.388;12.128;2023-05-07T00:39:01;4.73;;;3.67;;
15889;SDS011;8043;49.388;12.128;2023-05-07T00:44:04;4.10;;;3.07;;
15889;SDS011;8043;49.388;12.128;2023-05-07T00:49:07;5.30;;;3.23;;
15889;SDS011;8043;49.388;12.128;2023-05-07T00:54:09;6.87;;;3.00;;
15889;SDS011;8043;49.388;12.128;2023-05-07T00:59:11;6.60;;;3.47;;
15889;SDS011;8043;49.388;12.128;2023-05-07T01:04:13;8.70;;;3.60;;
15889;SDS011;8043;49.388;12.128;2023-05-07T01:09:15;6.43;;;3.27;;
15889;SDS011;8043;49.388;12.128;2023-05-07T01:14:18;10.27;;;3.40;;
15889;SDS011;8043;49.388;12.128;2023-05-07T01:19:21;5.90;;;3.87;;
15889;SDS011;8043;49.388;12.128;2023-05-07T01:24:23;7.43;;;4.07;;
15889;SDS011;8043;49.388;12.128;2023-05-07T01:29:25;7.63;;;4.43;;
15889;SDS011;8043;49.388;12.128;2023-05-07T01:34:28;5.80;;;3.70;;
15889;SDS011;8043;49.388;12.128;2023-05-07T01:39:31;6.43;;;3.80;;
15889;SDS011;8043;49.388;12.128;2023-05-07T01:44:34;8.03;;;4.30;;
15889;SDS011;8043;49.388;12.128;2023-05-07T01:49:36;7.53;;;3.97;;
15889;SDS011;8043;49.388;12.128;2023-05-07T01:54:39;8.93;;;3.90;;
15889;SDS011;8043;49.388;12.128;2023-05-07T01:59:41;8.33;;;4.30;;
15889;SDS011;8043;49.388;12.128;2023-05-07T02:04:43;8.13;;;3.95;;
15889;SDS011;8043;49.388;12.128;2023-05-07T02:09:47;8.77;;;4.43;;
15889;SDS011;8043;49.388;12.128;2023-05-07T02:14:49;7.73;;;4.37;;
15889;SDS011;8043;49.388;12.128;2023-05-07T02:19:51;7.70;;;4.37;;
15889;SDS011;8043;49.388;12.128;2023-05-07T02:24:54;9.63;;;4.90;;
15889;SDS011;8043;49.388;12.128;2023-05-07T02:29:56;7.07;;;4.33;;
15889;SDS011;8043;49.388;12.128;2023-05-07T02:34:58;8.33;;;4.47;;
15889;SDS011;8043;49.388;12.128;2023-05-07T02:40:01;9.07;;;5.20;;
15889;SDS011;8043;49.388;12.128;2023-05-07T02:45:05;8.10;;;4.73;;
15889;SDS011;8043;49.388;12.128;2023-05-07T02:50:08;7.93;;;4.17;;
15889;SDS011;8043;49.388;12.128;2023-05-07T02:55:11;9.63;;;4.80;;
15889;SDS011;8043;49.388;12.128;2023-05-07T03:00:14;9.70;;;5.20;;
15889;SDS011;8043;49.388;12.128;2023-05-07T03:05:18;11.20;;;4.53;;
15889;SDS011;8043;49.388;12.128;2023-05-07T03:10:20;10.70;;;5.23;;
15889;SDS011;8043;49.388;12.128;2023-05-07T03:15:22;9.63;;;4.83;;
15889;SDS011;8043;49.388;12.128;2023-05-07T03:20:25;7.43;;;4.60;;
15889;SDS011;8043;49.388;12.128;2023-05-07T03:25:28;8.17;;;4.87;;
15889;SDS011;8043;49.388;12.128;2023-05-07T03:30:31;8.23;;;4.80;;
15889;SDS011;8043;49.388;12.128;2023-05-07T03:35:33;6.20;;;4.20;;
15889;SDS011;8043;49.388;12.128;2023-05-07T03:40:37;12.67;;;5.03;;
15889;SDS011;8043;49.388;12.128;2023-05-07T03:45:41;9.30;;;5.03;;
15889;SDS011;8043;49.388;12.128;2023-05-07T03:50:44;6.93;;;4.37;;
15889;SDS011;8043;49.388;12.128;2023-05-07T03:55:46;10.80;;;5.93;;
15889;SDS011;8043;49.388;12.128;2023-05-07T04:00:49;14.27;;;5.33;;
15889;SDS011;8043;49.388;12.128;2023-05-07T04:05:52;8.87;;;5.43;;
15889;SDS011;8043;49.388;12.128;2023-05-07T04:10:55;11.27;;;5.40;;
15889;SDS011;8043;49.388;12.128;2023-05-07T04:15:57;8.07;;;4.60;;
15889;SDS011;8043;49.388;12.128;2023-05-07T04:20:59;9.90;;;4.70;;
15889;SDS011;8043;49.388;12.128;2023-05-07T04:26:02;7.77;;;4.10;;
15889;SDS011;8043;49.388;12.128;2023-05-07T04:31:04;7.37;;;4.50;;
15889;SDS011;8043;49.388;12.128;2023-05-07T04:36:06;10.17;;;5.60;;
15889;SDS011;8043;49.388;12.128;2023-05-07T04:41:09;9.60;;;4.80;;
15889;SDS011;8043;49.388;12.128;2023-05-07T04:46:13;9.67;;;5.37;;
15889;SDS011;8043;49.388;12.128;2023-05-07T04:51:16;10.70;;;5.83;;
15889;SDS011;8043;49.388;12.128;2023-05-07T04:56:18;10.00;;;5.73;;
15889;SDS011;8043;49.388;12.128;2023-05-07T05:01:21;9.40;;;5.40;;
15889;SDS011;8043;49.388;12.128;2023-05-07T05:06:23;13.80;;;6.53;;
15889;SDS011;8043;49.388;12.128;2023-05-07T05:11:26;12.47;;;6.33;;
15889;SDS011;8043;49.388;12.128;2023-05-07T05:16:28;10.20;;;5.80;;
15889;SDS011;8043;49.388;12.128;2023-05-07T05:21:31;10.37;;;6.00;;
15889;SDS011;8043;49.388;12.128;2023-05-07T05:26:33;10.60;;;6.30;;
15889;SDS011;8043;49.388;12.128;2023-05-07T05:31:36;9.60;;;5.13;;
15889;SDS011;8043;49.388;12.128;2023-05-07T05:36:38;10.03;;;5.80;;
15889;SDS011;8043;49.388;12.128;2023-05-07T05:41:40;12.00;;;6.27;;
15889;SDS011;8043;49.388;12.128;2023-05-07T05:46:42;10.03;;;5.77;;
15889;SDS011;8043;49.388;12.128;2023-05-07T05:51:45;12.63;;;5.67;;
15889;SDS011;8043;49.388;12.128;2023-05-07T05:56:47;11.40;;;5.97;;
15889;SDS011;8043;49.388;12.128;2023-05-07T06:01:50;12.17;;;6.03;;
15889;SDS011;8043;49.388;12.128;2023-05-07T06:06:52;13.10;;;7.03;;
15889;SDS011;8043;49.388;12.128;2023-05-07T06:11:54;16.70;;;7.60;;
15889;SDS011;8043;49.388;12.128;2023-05-07T06:16:56;13.13;;;6.53;;
15889;SDS011;8043;49.388;12.128;2023-05-07T06:21:59;15.10;;;7.27;;
15889;SDS011;8043;49.388;12.128;2023-05-07T06:27:02;14.23;;;7.10;;
15889;SDS011;8043;49.388;12.128;2023-05-07T06:32:08;16.23;;;7.37;;
15889;SDS011;8043;49.388;12.128;2023-05-07T06:37:11;13.63;;;7.07;;
15889;SDS011;8043;49.388;12.128;2023-05-07T06:42:13;14.73;;;7.23;;
15889;SDS011;8043;49.388;12.128;2023-05-07T06:47:15;12.33;;;6.90;;
15889;SDS011;8043;49.388;12.128;2023-05-07T06:52:18;14.33;;;6.47;;
15889;SDS011;8043;49.388;12.128;2023-05-07T06:57:20;11.83;;;6.17;;
15889;SDS011;8043;49.388;12.128;2023-05-07T07:02:22;10.00;;;5.87;;
15889;SDS011;8043;49.388;12.128;2023-05-07T07:07:24;15.77;;;7.07;;
15889;SDS011;8043;49.388;12.128;2023-05-07T07:12:26;13.70;;;6.90;;
15889;SDS011;8043;49.388;12.128;2023-05-07T07:17:30;11.23;;;5.77;;
15889;SDS011;8043;49.388;12.128;2023-05-07T07:22:32;12.70;;;6.27;;
15889;SDS011;8043;49.388;12.128;2023-05-07T07:27:35;11.23;;;5.83;;
15889;SDS011;8043;49.388;12.128;2023-05-07T07:32:37;12.40;;;6.43;;
15889;SDS011;8043;49.388;12.128;2023-05-07T07:37:40;16.57;;;7.33;;
15889;SDS011;8043;49.388;12.128;2023-05-07T07:42:42;11.90;;;6.57;;
15889;SDS011;8043;49.388;12.128;2023-05-07T07:47:44;12.27;;;6.17;;
15889;SDS011;8043;49.388;12.128;2023-05-07T07:52:47;13.60;;;6.17;;
15889;SDS011;8043;49.388;12.128;2023-05-07T07:57:50;13.83;;;7.63;;
15889;SDS011;8043;49.388;12.128;2023-05-07T08:02:52;11.60;;;6.13;;
15889;SDS011;8043;49.388;12.128;2023-05-07T08:07:54;9.73;;;5.30;;
15889;SDS011;8043;49.388;12.128;2023-05-07T08:12:56;12.03;;;6.33;;
15889;SDS011;8043;49.388;12.128;2023-05-07T08:17:58;12.57;;;6.20;;
15889;SDS011;8043;49.388;12.128;2023-05-07T08:23:01;14.98;;;6.30;;
15889;SDS011;8043;49.388;12.128;2023-05-07T08:28:03;15.13;;;7.10;;
15889;SDS011;8043;49.388;12.128;2023-05-07T08:33:06;11.00;;;5.90;;
15889;SDS011;8043;49.388;12.128;2023-05-07T08:38:10;10.37;;;5.87;;
15889;SDS011;8043;49.388;12.128;2023-05-07T08:43:12;13.83;;;6.40;;
15889;SDS011;8043;49.388;12.128;2023-05-07T08:48:16;11.87;;;5.93;;
15889;SDS011;8043;49.388;12.128;2023-05-07T08:53:18;10.97;;;6.77;;
15889;SDS011;8043;49.388;12.128;2023-05-07T08:58:22;9.77;;;5.40;;
15889;SDS011;8043;49.388;12.128;2023-05-07T09:03:24;11.33;;;6.13;;
15889;SDS011;8043;49.388;12.128;2023-05-07T09:08:26;9.17;;;5.30;;
15889;SDS011;8043;49.388;12.128;2023-05-07T09:13:30;10.30;;;5.70;;
15889;SDS011;8043;49.388;12.128;2023-05-07T09:18:32;10.47;;;6.37;;
15889;SDS011;8043;49.388;12.128;2023-05-07T09:23:35;10.30;;;5.57;;
15889;SDS011;8043;49.388;12.128;2023-05-07T09:28:41;12.30;;;4.93;;
15889;SDS011;8043;49.388;12.128;2023-05-07T09:33:43;9.75;;;5.53;;
15889;SDS011;8043;49.388;12.128;2023-05-07T09:38:45;9.70;;;5.13;;
15889;SDS011;8043;49.388;12.128;2023-05-07T09:43:48;10.07;;;5.53;;
15889;SDS011;8043;49.388;12.128;2023-05-07T09:48:53;13.70;;;6.63;;
15889;SDS011;8043;49.388;12.128;2023-05-07T09:53:59;12.97;;;5.87;;
15889;SDS011;8043;49.388;12.128;2023-05-07T09:59:04;8.13;;;5.27;;
15889;SDS011;8043;49.388;12.128;2023-05-07T10:04:07;16.80;;;6.53;;
15889;SDS011;8043;49.388;12.128;2023-05-07T10:09:10;11.43;;;5.17;;
15889;SDS011;8043;49.388;12.128;2023-05-07T10:14:13;9.63;;;4.43;;
15889;SDS011;8043;49.388;12.128;2023-05-07T10:19:16;11.60;;;4.83;;
15889;SDS011;8043;49.388;12.128;2023-05-07T10:24:22;8.10;;;4.60;;
15889;SDS011;8043;49.388;12.128;2023-05-07T10:34:58;7.50;;;4.43;;
15889;SDS011;8043;49.388;12.128;2023-05-07T10:40:03;9.33;;;4.80;;
15889;SDS011;8043;49.388;12.128;2023-05-07T10:45:14;8.60;;;4.50;;
15889;SDS011;8043;49.388;12.128;2023-05-07T10:55:24;8.00;;;4.53;;
15889;SDS011;8043;49.388;12.128;2023-05-07T11:05:32;9.43;;;5.10;;
15889;SDS011;8043;49.388;12.128;2023-05-07T11:10:48;7.63;;;4.57;;
15889;SDS011;8043;49.388;12.128;2023-05-07T11:15:51;13.60;;;5.00;;
15889;SDS011;8043;49.388;12.128;2023-05-07T11:20:57;8.23;;;4.30;;
15889;SDS011;8043;49.388;12.128;2023-05-07T11:26:02;7.97;;;4.30;;
15889;SDS011;8043;49.388;12.128;2023-05-07T11:31:06;6.73;;;3.17;;
15889;SDS011;8043;49.388;12.128;2023-05-07T11:36:08;5.87;;;3.27;;
15889;SDS011;8043;49.388;12.128;2023-05-07T11:41:10;3.47;;;2.53;;
15889;SDS011;8043;49.388;12.128;2023-05-07T11:46:13;5.20;;;3.07;;
15889;SDS011;8043;49.388;12.128;2023-05-07T11:51:18;8.10;;;3.17;;
15889;SDS011;8043;49.388;12.128;2023-05-07T11:56:22;5.17;;;2.83;;
15889;SDS011;8043;49.388;12.128;2023-05-07T12:01:24;6.87;;;3.13;;
15889;SDS011;8043;49.388;12.128;2023-05-07T12:06:27;7.83;;;3.20;;
15889;SDS011;8043;49.388;12.128;2023-05-07T12:11:29;4.20;;;2.87;;
15889;SDS011;8043;49.388;12.128;2023-05-07T12:16:31;6.25;;;2.60;;
15889;SDS011;8043;49.388;12.128;2023-05-07T12:21:34;7.65;;;3.25;;
15889;SDS011;8043;49.388;12.128;2023-05-07T12:26:39;6.05;;;3.67;;
15889;SDS011;8043;49.388;12.128;2023-05-07T12:31:42;4.77;;;2.90;;
15889;SDS011;8043;49.388;12.128;2023-05-07T12:36:45;5.00;;;2.80;;
15889;SDS011;8043;49.388;12.128;2023-05-07T12:41:53;5.22;;;3.12;;
15889;SDS011;8043;49.388;12.128;2023-05-07T12:46:56;5.65;;;3.70;;
15889;SDS011;8043;49.388;12.128;2023-05-07T12:51:58;4.20;;;2.90;;
15889;SDS011;8043;49.388;12.128;2023-05-07T12:57:07;6.75;;;3.80;;
15889;SDS011;8043;49.388;12.128;2023-05-07T13:02:06;6.13;;;3.73;;
15889;SDS011;8043;49.388;12.128;2023-05-07T13:07:08;7.17;;;3.52;;
15889;SDS011;8043;49.388;12.128;2023-05-07T13:12:10;5.75;;;3.30;;
15889;SDS011;8043;49.388;12.128;2023-05-07T13:17:13;5.10;;;3.27;;
15889;SDS011;8043;49.388;12.128;2023-05-07T13:22:15;5.67;;;3.55;;
15889;SDS011;8043;49.388;12.128;2023-05-07T13:27:17;4.53;;;3.08;;
15889;SDS011;8043;49.388;12.128;2023-05-07T13:32:20;7.35;;;4.37;;
15889;SDS011;8043;49.388;12.128;2023-05-07T13:37:22;7.03;;;3.65;;
15889;SDS011;8043;49.388;12.128;2023-05-07T13:42:24;5.87;;;3.55;;
15889;SDS011;8043;49.388;12.128;2023-05-07T13:47:27;5.42;;;3.45;;
15889;SDS011;8043;49.388;12.128;2023-05-07T13:52:29;6.53;;;3.42;;
15889;SDS011;8043;49.388;12.128;2023-05-07T13:57:31;4.87;;;3.27;;
15889;SDS011;8043;49.388;12.128;2023-05-07T14:02:34;4.10;;;2.75;;
15889;SDS011;8043;49.388;12.128;2023-05-07T14:07:36;6.13;;;3.30;;
15889;SDS011;8043;49.388;12.128;2023-05-07T14:12:38;4.85;;;2.70;;
15889;SDS011;8043;49.388;12.128;2023-05-07T14:17:41;3.90;;;2.70;;
15889;SDS011;8043;49.388;12.128;2023-05-07T14:22:43;5.20;;;2.90;;
15889;SDS011;8043;49.388;12.128;2023-05-07T14:27:46;3.55;;;2.20;;
15889;SDS011;8043;49.388;12.128;2023-05-07T14:32:48;4.15;;;2.70;;
15889;SDS011;8043;49.388;12.128;2023-05-07T14:37:51;3.10;;;2.33;;
15889;SDS011;8043;49.388;12.128;2023-05-07T14:42:53;5.05;;;2.65;;
15889;SDS011;8043;49.388;12.128;2023-05-07T14:47:57;9.68;;;2.90;;
15889;SDS011;8043;49.388;12.128;2023-05-07T14:52:59;5.45;;;2.92;;
15889;SDS011;8043;49.388;12.128;2023-05-07T14:58:01;6.13;;;3.30;;
15889;SDS011;8043;49.388;12.128;2023-05-07T15:03:05;4.37;;;2.70;;
15889;SDS011;8043;49.388;12.128;2023-05-07T15:08:09;4.87;;;2.80;;
15889;SDS011;8043;49.388;12.128;2023-05-07T15:13:12;4.95;;;2.75;;
15889;SDS011;8043;49.388;12.128;2023-05-07T15:18:14;4.67;;;3.08;;
15889;SDS011;8043;49.388;12.128;2023-05-07T15:23:17;6.25;;;2.80;;
15889;SDS011;8043;49.388;12.128;2023-05-07T15:28:19;3.90;;;2.72;;
15889;SDS011;8043;49.388;12.128;2023-05-07T15:33:25;3.42;;;2.58;;
15889;SDS011;8043;49.388;12.128;2023-05-07T15:38:27;4.97;;;2.90;;
15889;SDS011;8043;49.388;12.128;2023-05-07T15:43:30;5.00;;;2.90;;
15889;SDS011;8043;49.388;12.128;2023-05-07T15:48:33;3.47;;;2.50;;
15889;SDS011;8043;49.388;12.128;2023-05-07T15:53:35;6.53;;;3.60;;
15889;SDS011;8043;49.388;12.128;2023-05-07T15:58:37;5.70;;;3.20;;
15889;SDS011;8043;49.388;12.128;2023-05-07T16:03:39;6.40;;;3.07;;
15889;SDS011;8043;49.388;12.128;2023-05-07T16:08:42;6.83;;;3.58;;
15889;SDS011;8043;49.388;12.128;2023-05-07T16:13:44;5.50;;;2.80;;
15889;SDS011;8043;49.388;12.128;2023-05-07T16:18:46;5.00;;;3.00;;
15889;SDS011;8043;49.388;12.128;2023-05-07T16:23:49;5.50;;;3.37;;
15889;SDS011;8043;49.388;12.128;2023-05-07T16:28:51;5.67;;;3.00;;
15889;SDS011;8043;49.388;12.128;2023-05-07T16:33:53;3.83;;;2.67;;
15889;SDS011;8043;49.388;12.128;2023-05-07T16:38:56;4.53;;;2.50;;
15889;SDS011;8043;49.388;12.128;2023-05-07T16:43:58;6.13;;;2.73;;
15889;SDS011;8043;49.388;12.128;2023-05-07T16:49:01;5.40;;;3.40;;
15889;SDS011;8043;49.388;12.128;2023-05-07T16:54:03;6.17;;;3.70;;
15889;SDS011;8043;49.388;12.128;2023-05-07T16:59:05;5.00;;;3.27;;
15889;SDS011;8043;49.388;12.128;2023-05-07T17:04:07;7.17;;;3.80;;
15889;SDS011;8043;49.388;12.128;2023-05-07T17:09:12;5.17;;;3.30;;
15889;SDS011;8043;49.388;12.128;2023-05-07T17:14:15;11.20;;;4.00;;
15889;SDS011;8043;49.388;12.128;2023-05-07T17:19:18;8.73;;;4.27;;
15889;SDS011;8043;49.388;12.128;2023-05-07T17:24:20;7.07;;;3.90;;
15889;SDS011;8043;49.388;12.128;2023-05-07T17:29:22;10.53;;;4.70;;
15889;SDS011;8043;49.388;12.128;2023-05-07T17:34:24;5.17;;;3.37;;
15889;SDS011;8043;49.388;12.128;2023-05-07T17:39:27;8.30;;;4.20;;
15889;SDS011;8043;49.388;12.128;2023-05-07T17:44:29;12.77;;;5.97;;
15889;SDS011;8043;49.388;12.128;2023-05-07T17:49:31;7.73;;;4.10;;
15889;SDS011;8043;49.388;12.128;2023-05-07T17:54:34;9.03;;;4.63;;
15889;SDS011;8043;49.388;12.128;2023-05-07T17:59:36;10.03;;;4.37;;
15889;SDS011;8043;49.388;12.128;2023-05-07T18:04:39;6.57;;;3.97;;
15889;SDS011;8043;49.388;12.128;2023-05-07T18:09:42;7.23;;;3.93;;
15889;SDS011;8043;49.388;12.128;2023-05-07T18:14:44;6.70;;;4.10;;
15889;SDS011;8043;49.388;12.128;2023-05-07T18:19:47;6.43;;;3.77;;
15889;SDS011;8043;49.388;12.128;2023-05-07T18:24:50;5.40;;;3.80;;
15889;SDS011;8043;49.388;12.128;2023-05-07T18:29:52;8.73;;;4.27;;
15889;SDS011;8043;49.388;12.128;2023-05-07T18:34:54;7.97;;;4.50;;
15889;SDS011;8043;49.388;12.128;2023-05-07T18:39:57;4.80;;;3.53;;
15889;SDS011;8043;49.388;12.128;2023-05-07T18:45:01;9.50;;;4.33;;
15889;SDS011;8043;49.388;12.128;2023-05-07T18:50:04;10.77;;;4.37;;
15889;SDS011;8043;49.388;12.128;2023-05-07T18:55:06;9.60;;;4.37;;
15889;SDS011;8043;49.388;12.128;2023-05-07T19:00:11;7.57;;;3.90;;
15889;SDS011;8043;49.388;12.128;2023-05-07T19:05:18;7.67;;;4.27;;
15889;SDS011;8043;49.388;12.128;2023-05-07T19:10:32;6.87;;;3.60;;
15889;SDS011;8043;49.388;12.128;2023-05-07T19:15:37;7.80;;;3.93;;
15889;SDS011;8043;49.388;12.128;2023-05-07T19:20:51;5.13;;;3.10;;
15889;SDS011;8043;49.388;12.128;2023-05-07T19:25:59;5.70;;;3.37;;
15889;SDS011;8043;49.388;12.128;2023-05-07T19:31:03;6.13;;;3.50;;
15889;SDS011;8043;49.388;12.128;2023-05-07T19:36:08;4.70;;;3.07;;
15889;SDS011;8043;49.388;12.128;2023-05-07T19:41:11;7.07;;;3.90;;
15889;SDS011;8043;49.388;12.128;2023-05-07T19:46:14;5.17;;;3.30;;
15889;SDS011;8043;49.388;12.128;2023-05-07T19:51:16;5.40;;;2.90;;
15889;SDS011;8043;49.388;12.128;2023-05-07T19:56:19;3.90;;;2.53;;
15889;SDS011;8043;49.388;12.128;2023-05-07T20:01:42;6.20;;;3.30;;
15889;SDS011;8043;49.388;12.128;2023-05-07T20:06:54;4.73;;;3.10;;
15889;SDS011;8043;49.388;12.128;2023-05-07T20:11:57;7.30;;;3.90;;
15889;SDS011;8043;49.388;12.128;2023-05-07T20:16:59;5.20;;;3.13;;
15889;SDS011;8043;49.388;12.128;2023-05-07T20:22:02;5.50;;;3.23;;
15889;SDS011;8043;49.388;12.128;2023-05-07T20:27:04;5.13;;;3.10;;
15889;SDS011;8043;49.388;12.128;2023-05-07T20:32:07;4.47;;;3.03;;
15889;SDS011;8043;49.388;12.128;2023-05-07T20:37:12;3.57;;;2.57;;
15889;SDS011;8043;49.388;12.128;2023-05-07T20:42:16;5.07;;;3.27;;
15889;SDS011;8043;49.388;12.128;2023-05-07T20:47:18;6.13;;;3.73;;
15889;SDS011;8043;49.388;12.128;2023-05-07T20:52:21;7.90;;;3.97;;
15889;SDS011;8043;49.388;12.128;2023-05-07T20:57:24;6.53;;;3.53;;
15889;SDS011;8043;49.388;12.128;2023-05-07T21:02:26;6.13;;;3.30;;
15889;SDS011;8043;49.388;12.128;2023-05-07T21:07:28;5.20;;;3.63;;
15889;SDS011;8043;49.388;12.128;2023-05-07T21:12:31;5.77;;;3.40;;
15889;SDS011;8043;49.388;12.128;2023-05-07T21:17:33;5.33;;;3.40;;
15889;SDS011;8043;49.388;12.128;2023-05-07T21:22:36;4.50;;;2.87;;
15889;SDS011;8043;49.388;12.128;2023-05-07T21:27:38;6.23;;;3.67;;
15889;SDS011;8043;49.388;12.128;2023-05-07T21:32:41;6.03;;;2.90;;
15889;SDS011;8043;49.388;12.128;2023-05-07T21:37:44;7.63;;;3.90;;
15889;SDS011;8043;49.388;12.128;2023-05-07T21:42:46;6.77;;;3.43;;
15889;SDS011;8043;49.388;12.128;2023-05-07T21:47:48;9.63;;;3.63;;
15889;SDS011;8043;49.388;12.128;2023-05-07T21:52:51;5.17;;;3.47;;
15889;SDS011;8043;49.388;12.128;2023-05-07T21:57:53;6.73;;;3.73;;
15889;SDS011;8043;49.388;12.128;2023-05-07T22:02:56;5.33;;;2.90;;
15889;SDS011;8043;49.388;12.128;2023-05-07T22:07:58;9.23;;;4.00;;
15889;SDS011;8043;49.388;12.128;2023-05-07T22:13:00;5.57;;;3.50;;
15889;SDS011;8043;49.388;12.128;2023-05-07T22:18:03;7.80;;;3.80;;
15889;SDS011;8043;49.388;12.128;2023-05-07T22:23:07;5.80;;;3.67;;
15889;SDS011;8043;49.388;12.128;2023-05-07T22:28:09;6.47;;;3.60;;
15889;SDS011;8043;49.388;12.128;2023-05-07T22:33:12;7.27;;;3.77;;
15889;SDS011;8043;49.388;12.128;2023-05-07T22:38:15;5.47;;;3.47;;
15889;SDS011;8043;49.388;12.128;2023-05-07T22:43:17;8.10;;;3.63;;
15889;SDS011;8043;49.388;12.128;2023-05-07T22:48:19;5.73;;;3.30;;
15889;SDS011;8043;49.388;12.128;2023-05-07T22:53:21;6.20;;;3.30;;
15889;SDS011;8043;49.388;12.128;2023-05-07T22:58:24;6.77;;;3.67;;
15889;SDS011;8043;49.388;12.128;2023-05-07T23:03:26;6.30;;;3.60;;
15889;SDS011;8043;49.388;12.128;2023-05-07T23:08:28;6.37;;;3.90;;
15889;SDS011;8043;49.388;12.128;2023-05-07T23:13:31;8.37;;;4.13;;
15889;SDS011;8043;49.388;12.128;2023-05-07T23:18:33;8.83;;;4.00;;
15889;SDS011;8043;49.388;12.128;2023-05-07T23:23:35;6.97;;;3.60;;
15889;SDS011;8043;49.388;12.128;2023-05-07T23:28:37;5.87;;;3.50;;
15889;SDS011;8043;49.388;12.128;2023-05-07T23:33:40;5.67;;;3.70;;
15889;SDS011;8043;49.388;12.128;2023-05-07T23:38:42;5.20;;;3.30;;
15889;SDS011;8043;49.388;12.128;2023-05-07T23:43:44;5.83;;;3.63;;
15889;SDS011;8043;49.388;12.128;2023-05-07T23:48:46;5.93;;;3.27;;
15889;SDS011;8043;49.388;12.128;2023-05-07T23:53:49;5.03;;;3.30;;
15889;SDS011;8043;49.388;12.128;2023-05-07T23:58:51;5.30;;;3.20;;
